Menu Close Menu
Station Historical Data
Daily Summary for May 18, 2017 Units:  Metric    English   Both
« Previous Day
Next Day »
Daily Weekly Monthly Yearly Custom
  High: Low: Average:
Temperature: 30.4 °C 21.3 °C 25.2 °C
Dew Point: 20.6 °C 14.9 °C 18.5 °C
Humidity: 85% 47% 67%
Wind Speed: 1.6km/h 0km/h 0km/h
Wind Gust: 4.8km/h - -
Wind- - NNW
Pressure: 1019.9 hPa 1016.5 hPa -
Precipitation: 0 mm    
Historical Graphs
 
 
Tabular Data for May 18, 2017
Time Temperature Dew Point Pressure Wind Wind Speed Wind Gust Humidity Rainfall Rate (Hourly) solar Conditions
00:00 23.2 °C 15 °C 1017.2 hPa Calm     60% 0 mm WeatherDisplay:10.37 W/m2 SCT
00:15 23.2 °C 14.9 °C 1017.2 hPa Calm     60% 0 mm WeatherDisplay:10.37 W/m2 SCT
00:30 23.3 °C 14.9 °C 1017.2 hPa Calm     59% 0 mm WeatherDisplay:10.37 W/m2 SCT
00:45 23.4 °C 15.2 °C 1017.5 hPa Calm     60% 0 mm WeatherDisplay:10.37 W/m2 SCT
01:00 23.3 °C 16.3 °C 1017.5 hPa Calm     65% 0 mm WeatherDisplay:10.37 W/m2 SCT
01:15 22.9 °C 16.3 °C 1017.5 hPa Calm     66% 0 mm WeatherDisplay:10.37 W/m2 SCT
01:30 22.7 °C 16.3 °C 1017.5 hPa Calm     67% 0 mm WeatherDisplay:10.37 W/m2 SCT
01:45 22.7 °C 16.4 °C 1017.5 hPa Calm     68% 0 mm WeatherDisplay:10.37 W/m2 SCT
02:00 22.5 °C 15.8 °C 1017.5 hPa Calm     66% 0 mm WeatherDisplay:10.37 W/m2 SCT
02:15 22.7 °C 16.2 °C 1017.5 hPa Calm     67% 0 mm WeatherDisplay:10.37 W/m2 SCT
02:30 22.7 °C 16.5 °C 1017.5 hPa Calm     68% 0 mm WeatherDisplay:10.37 W/m2 SCT
02:45 22.7 °C 16.5 °C 1017.8 hPa Calm     68% 0 mm WeatherDisplay:10.37 W/m2 SCT
03:00 22.6 °C 17.1 °C 1017.8 hPa Calm     71% 0 mm WeatherDisplay:10.37 W/m2 SCT
03:15 21.8 °C 17.6 °C 1017.5 hPa Calm     77% 0 mm WeatherDisplay:10.37 W/m2 SCT
03:30 21.3 °C 17.7 °C 1017.5 hPa Calm     80% 0 mm WeatherDisplay:10.37 W/m2 SCT
03:45 21.3 °C 17.7 °C 1017.5 hPa Calm     80% 0 mm WeatherDisplay:10.37 W/m2 SCT
04:00 21.3 °C 17.7 °C 1017.8 hPa Calm     80% 0 mm WeatherDisplay:10.37 W/m2 SCT
04:15 21.3 °C 17.7 °C 1017.5 hPa Calm     80% 0 mm WeatherDisplay:10.37 W/m2 SCT
04:30 21.3 °C 17.7 °C 1017.8 hPa Calm     80% 0 mm WeatherDisplay:10.37 W/m2 SCT
04:45 21.3 °C 17.7 °C 1017.8 hPa Calm     80% 0 mm WeatherDisplay:10.37 W/m2 SCT
05:00 21.3 °C 17.7 °C 1017.8 hPa Calm     80% 0 mm WeatherDisplay:10.37 W/m2 SCT
05:15 21.3 °C 17.7 °C 1017.8 hPa Calm     80% 0 mm WeatherDisplay:10.37 W/m2 SCT
05:30 21.3 °C 17.7 °C 1018.2 hPa Calm     80% 0 mm WeatherDisplay:10.37 W/m2 SCT
05:45 21.3 °C 17.7 °C 1018.2 hPa Calm     80% 0 mm WeatherDisplay:10.37 W/m2 SCT
06:00 21.3 °C 17.7 °C 1018.2 hPa Calm     80% 0 mm WeatherDisplay:10.37 W/m2 SCT
06:15 21.3 °C 17.7 °C 1018.2 hPa Calm     80% 0 mm WeatherDisplay:10.37 W/m2 SCT
06:30 21.3 °C 17.7 °C 1018.5 hPa Calm     80% 0 mm WeatherDisplay:10.37 W/m2 SCT
06:45 21.3 °C 17.7 °C 1018.5 hPa Calm     80% 0 mm WeatherDisplay:10.37 W/m2 SCT
07:00 21.3 °C 17.7 °C 1018.8 hPa Calm     80% 0 mm WeatherDisplay:10.37 W/m2 SCT
07:15 21.3 °C 17.7 °C 1018.8 hPa Calm     80% 0 mm WeatherDisplay:10.37 W/m2 SCT
07:30 21.3 °C 17.7 °C 1019.2 hPa Calm     80% 0 mm WeatherDisplay:10.37 W/m2 SCT
07:45 21.3 °C 17.7 °C 1019.2 hPa Calm     80% 0 mm WeatherDisplay:10.37 W/m2 SCT
08:00 21.3 °C 17.7 °C 1019.2 hPa Calm     80% 0 mm WeatherDisplay:10.37 W/m2 SCT
08:15 21.6 °C 18.6 °C 1019.5 hPa Calm     83% 0 mm WeatherDisplay:10.37 W/m2 SCT
08:30 22.8 °C 19 °C 1019.5 hPa Calm     79% 0 mm WeatherDisplay:10.37 W/m2 SCT
08:45 23.4 °C 18.8 °C 1019.5 hPa Calm     75% 0 mm WeatherDisplay:10.37 W/m2 SCT
09:00 24.1 °C 19.3 °C 1019.9 hPa Calm     75% 0 mm WeatherDisplay:10.37 W/m2 SCT
09:15 24.5 °C 19.3 °C 1019.9 hPa Calm     73% 0 mm WeatherDisplay:10.37 W/m2 SCT
09:30 25 °C 19.8 °C 1019.9 hPa Calm     73% 0 mm WeatherDisplay:10.37 W/m2 SCT
09:45 25.1 °C 19.7 °C 1019.9 hPa Calm     72% 0 mm WeatherDisplay:10.37 W/m2 SCT
10:00 25.4 °C 19.8 °C 1019.9 hPa Calm     71% 0 mm WeatherDisplay:10.37 W/m2 SCT
10:15 25.2 °C 19.8 °C 1019.9 hPa Calm     72% 0 mm WeatherDisplay:10.37 W/m2 SCT
10:30 25.2 °C 19.8 °C 1019.9 hPa Calm     72% 0 mm WeatherDisplay:10.37 W/m2 SCT
10:45 25.7 °C 20 °C 1019.9 hPa Calm   1.6 km/h 71% 0 mm WeatherDisplay:10.37 W/m2 SCT
11:00 26.5 °C 20.4 °C 1019.9 hPa Calm   1.6 km/h 69% 0 mm WeatherDisplay:10.37 W/m2 SCT
11:15 26.9 °C 20 °C 1019.9 hPa Calm   3.2 km/h 66% 0 mm WeatherDisplay:10.37 W/m2 SCT
11:30 26.7 °C 20.3 °C 1019.9 hPa Calm   3.2 km/h 68% 0 mm WeatherDisplay:10.37 W/m2 SCT
11:45 27.4 °C 19.8 °C 1019.5 hPa Calm   1.6 km/h 63% 0 mm WeatherDisplay:10.37 W/m2 SCT
12:00 27.6 °C 20.2 °C 1019.5 hPa Calm   3.2 km/h 64% 0 mm WeatherDisplay:10.37 W/m2 SCT
12:30 28.1 °C 20.4 °C 1019.5 hPa Calm   1.6 km/h 63% 0 mm WeatherDisplay:10.37 W/m2 SCT
12:45 28 °C 20.6 °C 1019.2 hPa NNW 1.6 km/h 1.6 km/h 64% 0 mm WeatherDisplay:10.37 W/m2 SCT
13:00 28.4 °C 20.2 °C 1019.2 hPa Calm   1.6 km/h 61% 0 mm WeatherDisplay:10.37 W/m2 SCT
13:15 29.3 °C 19.7 °C 1018.8 hPa Calm   3.2 km/h 56% 0 mm WeatherDisplay:10.37 W/m2 SCT
13:30 29.7 °C 19.1 °C 1018.8 hPa Calm   3.2 km/h 53% 0 mm WeatherDisplay:10.37 W/m2 SCT
13:45 29.3 °C 19.9 °C 1018.8 hPa Calm     57% 0 mm WeatherDisplay:10.37 W/m2 SCT
14:00 29.2 °C 19.6 °C 1018.5 hPa Calm   3.2 km/h 56% 0 mm WeatherDisplay:10.37 W/m2 SCT
14:15 30.2 °C 18.7 °C 1018.2 hPa Calm   3.2 km/h 50% 0 mm WeatherDisplay:10.37 W/m2 SCT
14:30 30.1 °C 18.8 °C 1017.8 hPa Calm   4.8 km/h 51% 0 mm WeatherDisplay:10.37 W/m2 SCT
14:45 29.9 °C 18.4 °C 1017.8 hPa Calm   1.6 km/h 50% 0 mm WeatherDisplay:10.37 W/m2 SCT
15:00 29.7 °C 18.4 °C 1017.8 hPa Calm   1.6 km/h 51% 0 mm WeatherDisplay:10.37 W/m2 SCT
15:15 29.6 °C 18.9 °C 1017.8 hPa Calm   1.6 km/h 53% 0 mm WeatherDisplay:10.37 W/m2 SCT
15:30 29.9 °C 19 °C 1017.5 hPa Calm   4.8 km/h 52% 0 mm WeatherDisplay:10.37 W/m2 SCT
15:45 30.4 °C 18.2 °C 1017.5 hPa Calm   1.6 km/h 48% 0 mm WeatherDisplay:10.37 W/m2 SCT
16:00 30.1 °C 18.8 °C 1017.2 hPa Calm   1.6 km/h 51% 0 mm WeatherDisplay:10.37 W/m2 SCT
16:15 29.9 °C 18.7 °C 1017.2 hPa Calm     51% 0 mm WeatherDisplay:10.37 W/m2 SCT
16:30 29.9 °C 17.3 °C 1016.8 hPa Calm   1.6 km/h 47% 0 mm WeatherDisplay:10.37 W/m2 SCT
16:45 29.8 °C 19.2 °C 1016.8 hPa Calm   1.6 km/h 53% 0 mm WeatherDisplay:10.37 W/m2 SCT
17:00 30 °C 18.8 °C 1016.8 hPa Calm   1.6 km/h 51% 0 mm WeatherDisplay:10.37 W/m2 SCT
17:15 29.8 °C 18.2 °C 1016.8 hPa Calm     50% 0 mm WeatherDisplay:10.37 W/m2 SCT
17:30 29.2 °C 19 °C 1016.5 hPa Calm   1.6 km/h 54% 0 mm WeatherDisplay:10.37 W/m2 SCT
17:45 29.5 °C 18.9 °C 1016.5 hPa Calm   1.6 km/h 53% 0 mm WeatherDisplay:10.37 W/m2 SCT
18:00 29.8 °C 19.4 °C 1016.8 hPa Calm   3.2 km/h 54% 0 mm WeatherDisplay:10.37 W/m2 SCT
18:15 29.7 °C 18.8 °C 1016.8 hPa Calm   1.6 km/h 52% 0 mm WeatherDisplay:10.37 W/m2 SCT
18:30 29.1 °C 17.3 °C 1016.5 hPa Calm   1.6 km/h 49% 0 mm WeatherDisplay:10.37 W/m2 SCT
18:45 28.7 °C 18.2 °C 1016.8 hPa Calm     53% 0 mm WeatherDisplay:10.37 W/m2 SCT
19:00 28.6 °C 18.9 °C 1016.8 hPa Calm     56% 0 mm WeatherDisplay:10.37 W/m2 SCT
19:15 28.3 °C 19.6 °C 1016.5 hPa Calm     59% 0 mm WeatherDisplay:10.37 W/m2 SCT
19:30 28.1 °C 19 °C 1016.5 hPa Calm     58% 0 mm WeatherDisplay:10.37 W/m2 SCT
19:45 27.5 °C 18.8 °C 1016.5 hPa Calm     59% 0 mm WeatherDisplay:10.37 W/m2 SCT
20:00 27.1 °C 18.7 °C 1016.8 hPa Calm     60% 0 mm WeatherDisplay:10.37 W/m2 SCT
20:15 26.9 °C 19.5 °C 1016.8 hPa Calm     64% 0 mm WeatherDisplay:10.37 W/m2 SCT
20:30 26.5 °C 19.6 °C 1017.2 hPa Calm     66% 0 mm WeatherDisplay:10.37 W/m2 SCT
20:45 26.1 °C 19.7 °C 1017.2 hPa Calm     68% 0 mm WeatherDisplay:10.37 W/m2 SCT
21:00 25.5 °C 19.2 °C 1017.2 hPa Calm     68% 0 mm WeatherDisplay:10.37 W/m2 SCT
21:15 25 °C 19.2 °C 1017.2 hPa Calm     70% 0 mm WeatherDisplay:10.37 W/m2 SCT
21:30 24.6 °C 19.2 °C 1016.8 hPa Calm     72% 0 mm WeatherDisplay:10.37 W/m2 SCT
21:45 24.3 °C 19.3 °C 1017.2 hPa Calm     74% 0 mm WeatherDisplay:10.37 W/m2 SCT
22:00 23.9 °C 19.4 °C 1017.2 hPa Calm     76% 0 mm WeatherDisplay:10.37 W/m2 SCT
22:15 23.7 °C 19.7 °C 1017.2 hPa Calm     78% 0 mm WeatherDisplay:10.37 W/m2 SCT
22:30 23.4 °C 19.6 °C 1017.2 hPa Calm     79% 0 mm WeatherDisplay:10.37 W/m2 SCT
22:45 23.2 °C 19.6 °C 1017.5 hPa Calm     80% 0 mm WeatherDisplay:10.37 W/m2 SCT
23:00 23.1 °C 19.8 °C 1017.5 hPa Calm     82% 0 mm WeatherDisplay:10.37 W/m2 SCT
23:15 22.9 °C 19.8 °C 1017.5 hPa Calm     83% 0 mm WeatherDisplay:10.37 W/m2 SCT
23:30 22.8 °C 19.9 °C 1017.2 hPa Calm     84% 0 mm WeatherDisplay:10.37 W/m2 SCT
23:45 22.7 °C 20 °C 1017.5 hPa Calm     85% 0 mm WeatherDisplay:10.37 W/m2 SCT
Piedmont Bend
Compliments of Weather Underground - 4 mb